sensor_id;sensor_type;location;lat;lon;timestamp;pressure;altitude;pressure_sealevel;temperature
20867;BMP280;10593;48.398;10.698;2022-09-17T00:01:23;95694.97;;;19.24
20867;BMP280;10593;48.398;10.698;2022-09-17T00:03:56;95702.03;;;19.22
20867;BMP280;10593;48.398;10.698;2022-09-17T00:06:25;95704.72;;;19.21
20867;BMP280;10593;48.398;10.698;2022-09-17T00:08:52;95707.41;;;19.19
20867;BMP280;10593;48.398;10.698;2022-09-17T00:11:29;95710.00;;;19.19
20867;BMP280;10593;48.398;10.698;2022-09-17T00:13:59;95712.72;;;19.18
20867;BMP280;10593;48.398;10.698;2022-09-17T00:16:36;95706.75;;;19.16
20867;BMP280;10593;48.398;10.698;2022-09-17T00:19:05;95712.03;;;19.14
20867;BMP280;10593;48.398;10.698;2022-09-17T00:21:32;95714.72;;;19.13
20867;BMP280;10593;48.398;10.698;2022-09-17T00:24:02;95710.44;;;19.12
20867;BMP280;10593;48.398;10.698;2022-09-17T00:26:29;95714.91;;;19.10
20867;BMP280;10593;48.398;10.698;2022-09-17T00:28:56;95726.16;;;19.10
20867;BMP280;10593;48.398;10.698;2022-09-17T00:31:23;95714.06;;;19.09
20867;BMP280;10593;48.398;10.698;2022-09-17T00:33:50;95721.03;;;19.09
20867;BMP280;10593;48.398;10.698;2022-09-17T00:36:16;95709.88;;;19.07
20867;BMP280;10593;48.398;10.698;2022-09-17T00:38:42;95723.72;;;19.07
20867;BMP280;10593;48.398;10.698;2022-09-17T00:41:08;95725.50;;;19.07
20867;BMP280;10593;48.398;10.698;2022-09-17T00:43:42;95726.31;;;19.07
20867;BMP280;10593;48.398;10.698;2022-09-17T00:46:28;95722.97;;;19.05
20867;BMP280;10593;48.398;10.698;2022-09-17T00:48:58;95722.97;;;19.05
20867;BMP280;10593;48.398;10.698;2022-09-17T00:51:36;95722.03;;;19.06
20867;BMP280;10593;48.398;10.698;2022-09-17T00:54:07;95717.88;;;19.04
20867;BMP280;10593;48.398;10.698;2022-09-17T00:56:36;95718.69;;;19.04
20867;BMP280;10593;48.398;10.698;2022-09-17T00:59:03;95729.13;;;19.04
20867;BMP280;10593;48.398;10.698;2022-09-17T01:01:30;95721.31;;;19.04
20867;BMP280;10593;48.398;10.698;2022-09-17T01:03:57;95721.41;;;19.03
20867;BMP280;10593;48.398;10.698;2022-09-17T01:06:47;95725.78;;;19.02
20867;BMP280;10593;48.398;10.698;2022-09-17T01:09:57;95720.75;;;19.00
20867;BMP280;10593;48.398;10.698;2022-09-17T01:13:17;95721.88;;;18.96
20867;BMP280;10593;48.398;10.698;2022-09-17T01:16:08;95714.06;;;18.96
20867;BMP280;10593;48.398;10.698;2022-09-17T01:25:19;95749.00;;;18.92
20867;BMP280;10593;48.398;10.698;2022-09-17T01:28:31;95737.09;;;18.88
20867;BMP280;10593;48.398;10.698;2022-09-17T01:32:04;95740.63;;;18.87
20867;BMP280;10593;48.398;10.698;2022-09-17T01:34:29;95739.03;;;18.84
20867;BMP280;10593;48.398;10.698;2022-09-17T01:37:11;95735.47;;;18.85
20867;BMP280;10593;48.398;10.698;2022-09-17T01:39:52;95733.81;;;18.84
20867;BMP280;10593;48.398;10.698;2022-09-17T01:45:17;95725.19;;;18.84
20867;BMP280;10593;48.398;10.698;2022-09-17T01:48:06;95712.31;;;18.81
20867;BMP280;10593;48.398;10.698;2022-09-17T01:50:44;95722.66;;;18.82
20867;BMP280;10593;48.398;10.698;2022-09-17T01:53:15;95727.00;;;18.82
20867;BMP280;10593;48.398;10.698;2022-09-17T01:55:44;95725.34;;;18.81
20867;BMP280;10593;48.398;10.698;2022-09-17T02:00:56;95731.41;;;18.81
20867;BMP280;10593;48.398;10.698;2022-09-17T02:03:30;95733.25;;;18.79
20867;BMP280;10593;48.398;10.698;2022-09-17T02:06:19;95731.56;;;18.78
20867;BMP280;10593;48.398;10.698;2022-09-17T02:08:54;95731.56;;;18.78
20867;BMP280;10593;48.398;10.698;2022-09-17T02:11:21;95735.94;;;18.78
20867;BMP280;10593;48.398;10.698;2022-09-17T02:13:59;95739.47;;;18.77
20867;BMP280;10593;48.398;10.698;2022-09-17T02:16:31;95751.66;;;18.76
20867;BMP280;10593;48.398;10.698;2022-09-17T02:19:10;95746.53;;;18.75
20867;BMP280;10593;48.398;10.698;2022-09-17T02:28:45;95739.09;;;18.69
20867;BMP280;10593;48.398;10.698;2022-09-17T02:30:43;95739.16;;;18.67
20867;BMP280;10593;48.398;10.698;2022-09-17T02:33:13;95730.41;;;18.68
20867;BMP280;10593;48.398;10.698;2022-09-17T02:35:39;95729.56;;;18.68
20867;BMP280;10593;48.398;10.698;2022-09-17T02:38:05;95727.06;;;18.66
20867;BMP280;10593;48.398;10.698;2022-09-17T02:40:47;95725.41;;;18.65
20867;BMP280;10593;48.398;10.698;2022-09-17T02:46:27;95722.88;;;18.64
20867;BMP280;10593;48.398;10.698;2022-09-17T02:52:02;95717.78;;;18.62
20867;BMP280;10593;48.398;10.698;2022-09-17T02:57:35;95708.38;;;18.60
20867;BMP280;10593;48.398;10.698;2022-09-17T03:00:15;95707.63;;;18.58
20867;BMP280;10593;48.398;10.698;2022-09-17T03:03:09;95714.69;;;18.56
20867;BMP280;10593;48.398;10.698;2022-09-17T03:05:38;95719.88;;;18.56
20867;BMP280;10593;48.398;10.698;2022-09-17T03:08:08;95712.97;;;18.55
20867;BMP280;10593;48.398;10.698;2022-09-17T03:10:37;95715.59;;;18.55
20867;BMP280;10593;48.398;10.698;2022-09-17T03:13:03;95715.59;;;18.55
20867;BMP280;10593;48.398;10.698;2022-09-17T03:15:28;95715.69;;;18.53
20867;BMP280;10593;48.398;10.698;2022-09-17T03:17:54;95714.00;;;18.52
20867;BMP280;10593;48.398;10.698;2022-09-17T03:20:20;95718.38;;;18.52
20867;BMP280;10593;48.398;10.698;2022-09-17T03:22:45;95714.94;;;18.51
20867;BMP280;10593;48.398;10.698;2022-09-17T03:25:11;95709.75;;;18.51
20867;BMP280;10593;48.398;10.698;2022-09-17T03:27:37;95712.41;;;18.50
20867;BMP280;10593;48.398;10.698;2022-09-17T03:30:05;95717.69;;;18.48
20867;BMP280;10593;48.398;10.698;2022-09-17T03:32:32;95715.19;;;18.47
20867;BMP280;10593;48.398;10.698;2022-09-17T03:34:58;95720.41;;;18.47
20867;BMP280;10593;48.398;10.698;2022-09-17T03:37:23;95717.06;;;18.45
20867;BMP280;10593;48.398;10.698;2022-09-17T03:39:49;95717.13;;;18.43
20867;BMP280;10593;48.398;10.698;2022-09-17T03:42:15;95717.13;;;18.43
20867;BMP280;10593;48.398;10.698;2022-09-17T03:44:40;95711.09;;;18.43
20867;BMP280;10593;48.398;10.698;2022-09-17T03:47:06;95706.81;;;18.42
20867;BMP280;10593;48.398;10.698;2022-09-17T03:49:32;95711.19;;;18.41
20867;BMP280;10593;48.398;10.698;2022-09-17T03:51:58;95705.13;;;18.41
20867;BMP280;10593;48.398;10.698;2022-09-17T03:54:24;95708.66;;;18.40
20867;BMP280;10593;48.398;10.698;2022-09-17T03:56:50;95709.56;;;18.39
20867;BMP280;10593;48.398;10.698;2022-09-17T03:59:16;95712.19;;;18.39
20867;BMP280;10593;48.398;10.698;2022-09-17T04:01:41;95707.91;;;18.38
20867;BMP280;10593;48.398;10.698;2022-09-17T04:04:07;95712.19;;;18.39
20867;BMP280;10593;48.398;10.698;2022-09-17T04:06:33;95712.28;;;18.37
20867;BMP280;10593;48.398;10.698;2022-09-17T04:08:58;95714.03;;;18.37
20867;BMP280;10593;48.398;10.698;2022-09-17T04:11:25;95714.03;;;18.37
20867;BMP280;10593;48.398;10.698;2022-09-17T04:13:51;95717.56;;;18.36
20867;BMP280;10593;48.398;10.698;2022-09-17T04:16:17;95717.56;;;18.36
20867;BMP280;10593;48.398;10.698;2022-09-17T04:18:43;95710.69;;;18.35
20867;BMP280;10593;48.398;10.698;2022-09-17T04:21:09;95710.69;;;18.35
20867;BMP280;10593;48.398;10.698;2022-09-17T04:23:34;95710.75;;;18.33
20867;BMP280;10593;48.398;10.698;2022-09-17T04:26:00;95713.47;;;18.32
20867;BMP280;10593;48.398;10.698;2022-09-17T04:28:26;95713.47;;;18.32
20867;BMP280;10593;48.398;10.698;2022-09-17T04:30:51;95707.41;;;18.31
20867;BMP280;10593;48.398;10.698;2022-09-17T04:33:17;95717.06;;;18.29
20867;BMP280;10593;48.398;10.698;2022-09-17T04:35:43;95706.75;;;18.28
20867;BMP280;10593;48.398;10.698;2022-09-17T04:38:10;95700.75;;;18.26
20867;BMP280;10593;48.398;10.698;2022-09-17T04:40:39;95709.47;;;18.25
20867;BMP280;10593;48.398;10.698;2022-09-17T04:43:07;95708.72;;;18.23
20867;BMP280;10593;48.398;10.698;2022-09-17T04:45:35;95706.22;;;18.21
20867;BMP280;10593;48.398;10.698;2022-09-17T04:48:01;95710.59;;;18.21
20867;BMP280;10593;48.398;10.698;2022-09-17T04:50:27;95725.44;;;18.19
20867;BMP280;10593;48.398;10.698;2022-09-17T04:52:53;95724.59;;;18.18
20867;BMP280;10593;48.398;10.698;2022-09-17T04:55:18;95721.25;;;18.16
20867;BMP280;10593;48.398;10.698;2022-09-17T04:57:50;95717.81;;;18.16
20867;BMP280;10593;48.398;10.698;2022-09-17T05:00:17;95718.75;;;18.15
20867;BMP280;10593;48.398;10.698;2022-09-17T05:02:46;95719.63;;;18.14
20867;BMP280;10593;48.398;10.698;2022-09-17T05:05:14;95731.81;;;18.13
20867;BMP280;10593;48.398;10.698;2022-09-17T05:07:40;95725.75;;;18.13
20867;BMP280;10593;48.398;10.698;2022-09-17T05:10:08;95721.50;;;18.12
20867;BMP280;10593;48.398;10.698;2022-09-17T05:12:34;95722.41;;;18.11
20867;BMP280;10593;48.398;10.698;2022-09-17T05:15:00;95725.13;;;18.09
20867;BMP280;10593;48.398;10.698;2022-09-17T05:17:25;95730.31;;;18.09
20867;BMP280;10593;48.398;10.698;2022-09-17T05:19:51;95719.13;;;18.07
20867;BMP280;10593;48.398;10.698;2022-09-17T05:22:18;95731.25;;;18.08
20867;BMP280;10593;48.398;10.698;2022-09-17T05:24:45;95730.41;;;18.08
20867;BMP280;10593;48.398;10.698;2022-09-17T05:27:12;95739.13;;;18.07
20867;BMP280;10593;48.398;10.698;2022-09-17T05:29:37;95747.84;;;18.06
20867;BMP280;10593;48.398;10.698;2022-09-17T05:32:05;95746.91;;;18.07
20867;BMP280;10593;48.398;10.698;2022-09-17T05:34:31;95745.25;;;18.06
20867;BMP280;10593;48.398;10.698;2022-09-17T05:36:57;95751.38;;;18.05
20867;BMP280;10593;48.398;10.698;2022-09-17T05:39:23;95756.56;;;18.05
20867;BMP280;10593;48.398;10.698;2022-09-17T05:41:52;95766.13;;;18.04
20867;BMP280;10593;48.398;10.698;2022-09-17T05:44:18;95767.91;;;18.04
20867;BMP280;10593;48.398;10.698;2022-09-17T05:46:45;95772.34;;;18.02
20867;BMP280;10593;48.398;10.698;2022-09-17T05:49:13;95790.44;;;18.03
20867;BMP280;10593;48.398;10.698;2022-09-17T05:51:40;95799.22;;;18.01
20867;BMP280;10593;48.398;10.698;2022-09-17T05:54:06;95808.75;;;18.02
20867;BMP280;10593;48.398;10.698;2022-09-17T05:56:33;95809.63;;;18.01
20867;BMP280;10593;48.398;10.698;2022-09-17T05:58:58;95818.34;;;18.00
20867;BMP280;10593;48.398;10.698;2022-09-17T06:01:25;95816.63;;;18.00
20867;BMP280;10593;48.398;10.698;2022-09-17T06:03:50;95813.16;;;18.00
20867;BMP280;10593;48.398;10.698;2022-09-17T06:06:16;95828.75;;;18.00
20867;BMP280;10593;48.398;10.698;2022-09-17T06:08:41;95828.75;;;18.00
20867;BMP280;10593;48.398;10.698;2022-09-17T06:11:08;95828.75;;;18.00
20867;BMP280;10593;48.398;10.698;2022-09-17T06:13:34;95837.41;;;18.00
20867;BMP280;10593;48.398;10.698;2022-09-17T06:16:02;95833.03;;;18.01
20867;BMP280;10593;48.398;10.698;2022-09-17T06:18:30;95840.84;;;18.01
20867;BMP280;10593;48.398;10.698;2022-09-17T06:21:02;95834.63;;;18.03
20867;BMP280;10593;48.398;10.698;2022-09-17T06:23:32;95839.03;;;18.03
20867;BMP280;10593;48.398;10.698;2022-09-17T06:26:03;95846.81;;;18.03
20867;BMP280;10593;48.398;10.698;2022-09-17T06:28:30;95847.75;;;18.02
20867;BMP280;10593;48.398;10.698;2022-09-17T06:31:01;95857.22;;;18.03
20867;BMP280;10593;48.398;10.698;2022-09-17T06:33:29;95855.53;;;18.02
20867;BMP280;10593;48.398;10.698;2022-09-17T06:36:00;95865.03;;;18.03
20867;BMP280;10593;48.398;10.698;2022-09-17T06:38:29;95871.16;;;18.02
20867;BMP280;10593;48.398;10.698;2022-09-17T06:40:56;95865.03;;;18.03
20867;BMP280;10593;48.398;10.698;2022-09-17T06:43:22;95869.38;;;18.02
20867;BMP280;10593;48.398;10.698;2022-09-17T06:46:00;95876.34;;;18.02
20867;BMP280;10593;48.398;10.698;2022-09-17T06:48:28;95871.03;;;18.03
20867;BMP280;10593;48.398;10.698;2022-09-17T06:51:00;95879.69;;;18.04
20867;BMP280;10593;48.398;10.698;2022-09-17T06:53:26;95882.31;;;18.04
20867;BMP280;10593;48.398;10.698;2022-09-17T06:55:55;95883.97;;;18.05
20867;BMP280;10593;48.398;10.698;2022-09-17T06:58:21;95883.13;;;18.04
20867;BMP280;10593;48.398;10.698;2022-09-17T07:00:47;95888.31;;;18.04
20867;BMP280;10593;48.398;10.698;2022-09-17T07:03:13;95883.06;;;18.06
20867;BMP280;10593;48.398;10.698;2022-09-17T07:05:38;95894.28;;;18.06
20867;BMP280;10593;48.398;10.698;2022-09-17T07:08:05;95894.22;;;18.08
20867;BMP280;10593;48.398;10.698;2022-09-17T07:10:31;95894.03;;;18.11
20867;BMP280;10593;48.398;10.698;2022-09-17T07:12:57;95896.56;;;18.12
20867;BMP280;10593;48.398;10.698;2022-09-17T07:15:24;95892.19;;;18.13
20867;BMP280;10593;48.398;10.698;2022-09-17T07:17:49;95895.66;;;18.13
20867;BMP280;10593;48.398;10.698;2022-09-17T07:20:16;95899.06;;;18.14
20867;BMP280;10593;48.398;10.698;2022-09-17T07:22:41;95894.72;;;18.14
20867;BMP280;10593;48.398;10.698;2022-09-17T07:25:08;95888.59;;;18.15
20867;BMP280;10593;48.398;10.698;2022-09-17T07:27:34;95895.41;;;18.18
20867;BMP280;10593;48.398;10.698;2022-09-17T07:30:00;95889.28;;;18.19
20867;BMP280;10593;48.398;10.698;2022-09-17T07:32:29;95878.78;;;18.20
20867;BMP280;10593;48.398;10.698;2022-09-17T07:34:55;95884.00;;;18.20
20867;BMP280;10593;48.398;10.698;2022-09-17T07:37:21;95885.66;;;18.21
20867;BMP280;10593;48.398;10.698;2022-09-17T07:39:47;95876.13;;;18.22
20867;BMP280;10593;48.398;10.698;2022-09-17T07:42:13;95886.53;;;18.22
20867;BMP280;10593;48.398;10.698;2022-09-17T07:44:38;95881.31;;;18.22
20867;BMP280;10593;48.398;10.698;2022-09-17T07:47:04;95886.69;;;18.19
20867;BMP280;10593;48.398;10.698;2022-09-17T07:49:30;95891.88;;;18.19
20867;BMP280;10593;48.398;10.698;2022-09-17T07:51:56;95886.75;;;18.17
20867;BMP280;10593;48.398;10.698;2022-09-17T07:54:22;95885.84;;;18.18
20867;BMP280;10593;48.398;10.698;2022-09-17T07:56:48;95888.53;;;18.17
20867;BMP280;10593;48.398;10.698;2022-09-17T07:59:13;95888.53;;;18.17
20867;BMP280;10593;48.398;10.698;2022-09-17T08:01:39;95882.47;;;18.16
20867;BMP280;10593;48.398;10.698;2022-09-17T08:04:05;95889.47;;;18.16
20867;BMP280;10593;48.398;10.698;2022-09-17T08:06:36;95889.47;;;18.16
20867;BMP280;10593;48.398;10.698;2022-09-17T08:09:03;95886.84;;;18.16
20867;BMP280;10593;48.398;10.698;2022-09-17T08:11:30;95894.56;;;18.17
20867;BMP280;10593;48.398;10.698;2022-09-17T08:13:56;95884.16;;;18.17
20867;BMP280;10593;48.398;10.698;2022-09-17T08:16:23;95883.16;;;18.20
20867;BMP280;10593;48.398;10.698;2022-09-17T08:18:55;95876.13;;;18.22
20867;BMP280;10593;48.398;10.698;2022-09-17T08:21:22;95876.13;;;18.22
20867;BMP280;10593;48.398;10.698;2022-09-17T08:23:48;95870.91;;;18.22
20867;BMP280;10593;48.398;10.698;2022-09-17T08:26:17;95870.75;;;18.25
20867;BMP280;10593;48.398;10.698;2022-09-17T08:28:45;95865.53;;;18.25
20867;BMP280;10593;48.398;10.698;2022-09-17T08:31:12;95864.50;;;18.29
20867;BMP280;10593;48.398;10.698;2022-09-17T08:33:39;95865.25;;;18.31
20867;BMP280;10593;48.398;10.698;2022-09-17T08:36:09;95860.72;;;18.34
20867;BMP280;10593;48.398;10.698;2022-09-17T08:38:37;95864.00;;;18.38
20867;BMP280;10593;48.398;10.698;2022-09-17T08:47:29;95868.88;;;18.44
20867;BMP280;10593;48.398;10.698;2022-09-17T08:50:02;95869.72;;;18.44
20867;BMP280;10593;48.398;10.698;2022-09-17T08:53:10;95874.84;;;18.46
20867;BMP280;10593;48.398;10.698;2022-09-17T08:56:04;95871.38;;;18.45
20867;BMP280;10593;48.398;10.698;2022-09-17T08:58:55;95873.97;;;18.45
20867;BMP280;10593;48.398;10.698;2022-09-17T09:01:51;95879.19;;;18.45
20867;BMP280;10593;48.398;10.698;2022-09-17T09:07:37;95888.78;;;18.45
20867;BMP280;10593;48.398;10.698;2022-09-17T09:10:24;95882.72;;;18.44
20867;BMP280;10593;48.398;10.698;2022-09-17T09:12:53;95882.66;;;18.46
20867;BMP280;10593;48.398;10.698;2022-09-17T09:15:46;95887.84;;;18.46
20867;BMP280;10593;48.398;10.698;2022-09-17T09:18:29;95884.41;;;18.45
20867;BMP280;10593;48.398;10.698;2022-09-17T09:21:28;95898.31;;;18.44
20867;BMP280;10593;48.398;10.698;2022-09-17T09:24:13;95896.66;;;18.43
20867;BMP280;10593;48.398;10.698;2022-09-17T09:27:13;95904.44;;;18.43
20867;BMP280;10593;48.398;10.698;2022-09-17T09:30:06;95907.06;;;18.43
20867;BMP280;10593;48.398;10.698;2022-09-17T09:35:28;95912.25;;;18.43
20867;BMP280;10593;48.398;10.698;2022-09-17T09:38:30;95927.13;;;18.41
20867;BMP280;10593;48.398;10.698;2022-09-17T09:41:11;95921.00;;;18.42
20867;BMP280;10593;48.398;10.698;2022-09-17T09:44:09;95922.91;;;18.39
20867;BMP280;10593;48.398;10.698;2022-09-17T09:47:08;95925.50;;;18.39
20867;BMP280;10593;48.398;10.698;2022-09-17T09:49:56;95916.78;;;18.40
20867;BMP280;10593;48.398;10.698;2022-09-17T09:52:57;95924.69;;;18.38
20867;BMP280;10593;48.398;10.698;2022-09-17T09:55:53;95927.34;;;18.37
20867;BMP280;10593;48.398;10.698;2022-09-17T09:58:39;95936.00;;;18.37
20867;BMP280;10593;48.398;10.698;2022-09-17T10:01:15;95932.56;;;18.37
20867;BMP280;10593;48.398;10.698;2022-09-17T10:03:43;95936.78;;;18.39
20867;BMP280;10593;48.398;10.698;2022-09-17T10:06:12;95940.97;;;18.42
20867;BMP280;10593;48.398;10.698;2022-09-17T10:09:22;95944.34;;;18.44
20867;BMP280;10593;48.398;10.698;2022-09-17T10:11:31;95938.28;;;18.43
20867;BMP280;10593;48.398;10.698;2022-09-17T10:14:26;95946.09;;;18.43
20867;BMP280;10593;48.398;10.698;2022-09-17T10:17:21;95947.00;;;18.42
20867;BMP280;10593;48.398;10.698;2022-09-17T10:20:15;95953.06;;;18.43
20867;BMP280;10593;48.398;10.698;2022-09-17T10:22:45;95954.75;;;18.44
20867;BMP280;10593;48.398;10.698;2022-09-17T10:25:32;95960.69;;;18.46
20867;BMP280;10593;48.398;10.698;2022-09-17T10:28:04;95952.91;;;18.46
20867;BMP280;10593;48.398;10.698;2022-09-17T10:30:59;95952.91;;;18.46
20867;BMP280;10593;48.398;10.698;2022-09-17T10:33:30;95946.84;;;18.45
20867;BMP280;10593;48.398;10.698;2022-09-17T10:36:05;95946.78;;;18.47
20867;BMP280;10593;48.398;10.698;2022-09-17T10:38:39;95937.97;;;18.49
20867;BMP280;10593;48.398;10.698;2022-09-17T10:41:21;95931.75;;;18.52
20867;BMP280;10593;48.398;10.698;2022-09-17T10:43:49;95938.63;;;18.53
20867;BMP280;10593;48.398;10.698;2022-09-17T10:46:29;95929.81;;;18.55
20867;BMP280;10593;48.398;10.698;2022-09-17T10:49:13;95931.50;;;18.56
20867;BMP280;10593;48.398;10.698;2022-09-17T10:51:44;95931.31;;;18.59
20867;BMP280;10593;48.398;10.698;2022-09-17T10:54:33;95934.78;;;18.60
20867;BMP280;10593;48.398;10.698;2022-09-17T10:57:03;95932.94;;;18.62
20867;BMP280;10593;48.398;10.698;2022-09-17T10:59:49;95929.41;;;18.63
20867;BMP280;10593;48.398;10.698;2022-09-17T11:20:02;95924.69;;;18.54
20867;BMP280;10593;48.398;10.698;2022-09-17T11:25:59;95927.47;;;18.51
20867;BMP280;10593;48.398;10.698;2022-09-17T11:28:53;95930.00;;;18.52
20867;BMP280;10593;48.398;10.698;2022-09-17T11:31:35;95919.47;;;18.54
20867;BMP280;10593;48.398;10.698;2022-09-17T11:37:24;95912.47;;;18.56
20867;BMP280;10593;48.398;10.698;2022-09-17T11:40:02;95913.22;;;18.58
20867;BMP280;10593;48.398;10.698;2022-09-17T11:45:21;95912.13;;;18.62
20867;BMP280;10593;48.398;10.698;2022-09-17T11:47:58;95906.75;;;18.65
20867;BMP280;10593;48.398;10.698;2022-09-17T11:50:44;95904.88;;;18.67
20867;BMP280;10593;48.398;10.698;2022-09-17T11:53:18;95902.22;;;18.68
20867;BMP280;10593;48.398;10.698;2022-09-17T11:55:58;95901.22;;;18.71
20867;BMP280;10593;48.398;10.698;2022-09-17T11:58:39;95896.81;;;18.71
20867;BMP280;10593;48.398;10.698;2022-09-17T12:01:37;95900.94;;;18.75
20867;BMP280;10593;48.398;10.698;2022-09-17T12:04:37;95900.78;;;18.78
20867;BMP280;10593;48.398;10.698;2022-09-17T12:07:35;95894.47;;;18.82
20867;BMP280;10593;48.398;10.698;2022-09-17T12:13:22;95896.84;;;18.87
20867;BMP280;10593;48.398;10.698;2022-09-17T12:19:03;95909.94;;;18.85
20867;BMP280;10593;48.398;10.698;2022-09-17T12:21:47;95905.75;;;18.83
20867;BMP280;10593;48.398;10.698;2022-09-17T12:24:22;95911.78;;;18.83
20867;BMP280;10593;48.398;10.698;2022-09-17T12:27:02;95916.16;;;18.83
20867;BMP280;10593;48.398;10.698;2022-09-17T12:36:29;95886.25;;;18.74
20867;BMP280;10593;48.398;10.698;2022-09-17T12:39:32;95882.88;;;18.72
20867;BMP280;10593;48.398;10.698;2022-09-17T12:42:31;95880.38;;;18.71
20867;BMP280;10593;48.398;10.698;2022-09-17T12:45:30;95877.03;;;18.69
20867;BMP280;10593;48.398;10.698;2022-09-17T12:51:35;95869.81;;;18.74
20867;BMP280;10593;48.398;10.698;2022-09-17T13:00:53;95844.44;;;18.77
20867;BMP280;10593;48.398;10.698;2022-09-17T13:03:30;95858.03;;;18.82
20867;BMP280;10593;48.398;10.698;2022-09-17T13:06:33;95843.16;;;18.84
20867;BMP280;10593;48.398;10.698;2022-09-17T13:09:57;95841.41;;;18.85
20867;BMP280;10593;48.398;10.698;2022-09-17T13:12:39;95840.31;;;18.89
20867;BMP280;10593;48.398;10.698;2022-09-17T13:15:34;95839.19;;;18.93
20867;BMP280;10593;48.398;10.698;2022-09-17T13:18:22;95841.72;;;18.94
20867;BMP280;10593;48.398;10.698;2022-09-17T13:21:11;95849.28;;;18.99
20867;BMP280;10593;48.398;10.698;2022-09-17T13:23:47;95852.63;;;19.01
20867;BMP280;10593;48.398;10.698;2022-09-17T13:26:18;95849.09;;;19.02
20867;BMP280;10593;48.398;10.698;2022-09-17T13:28:50;95852.44;;;19.03
20867;BMP280;10593;48.398;10.698;2022-09-17T13:34:01;95863.63;;;19.05
20867;BMP280;10593;48.398;10.698;2022-09-17T13:36:50;95860.09;;;19.06
20867;BMP280;10593;48.398;10.698;2022-09-17T13:39:39;95873.97;;;19.07
20867;BMP280;10593;48.398;10.698;2022-09-17T13:42:19;95866.22;;;19.05
20867;BMP280;10593;48.398;10.698;2022-09-17T13:44:52;95877.66;;;19.03
20867;BMP280;10593;48.398;10.698;2022-09-17T13:47:32;95875.88;;;19.03
20867;BMP280;10593;48.398;10.698;2022-09-17T13:50:04;95883.69;;;19.03
20867;BMP280;10593;48.398;10.698;2022-09-17T13:55:01;95888.16;;;19.02
20867;BMP280;10593;48.398;10.698;2022-09-17T13:57:30;95893.44;;;19.00
20867;BMP280;10593;48.398;10.698;2022-09-17T13:59:59;95881.28;;;19.01
20867;BMP280;10593;48.398;10.698;2022-09-17T14:02:30;95886.56;;;18.99
20867;BMP280;10593;48.398;10.698;2022-09-17T14:05:24;95877.25;;;18.95
20867;BMP280;10593;48.398;10.698;2022-09-17T14:08:13;95875.66;;;18.93
20867;BMP280;10593;48.398;10.698;2022-09-17T14:10:52;95887.84;;;18.92
20867;BMP280;10593;48.398;10.698;2022-09-17T14:13:37;95892.94;;;18.94
20867;BMP280;10593;48.398;10.698;2022-09-17T14:21:55;95902.78;;;18.89
20867;BMP280;10593;48.398;10.698;2022-09-17T14:24:24;95895.06;;;18.87
20867;BMP280;10593;48.398;10.698;2022-09-17T14:27:33;95895.91;;;18.88
20867;BMP280;10593;48.398;10.698;2022-09-17T14:33:05;95900.38;;;18.86
20867;BMP280;10593;48.398;10.698;2022-09-17T14:35:44;95888.28;;;18.85
20867;BMP280;10593;48.398;10.698;2022-09-17T14:43:57;95908.25;;;18.84
20867;BMP280;10593;48.398;10.698;2022-09-17T14:46:42;95916.06;;;18.84
20867;BMP280;10593;48.398;10.698;2022-09-17T14:49:25;95916.91;;;18.85
20867;BMP280;10593;48.398;10.698;2022-09-17T14:51:53;95912.63;;;18.84
20867;BMP280;10593;48.398;10.698;2022-09-17T14:59:46;95928.25;;;18.84
20867;BMP280;10593;48.398;10.698;2022-09-17T15:02:28;95930.06;;;18.82
20867;BMP280;10593;48.398;10.698;2022-09-17T15:04:55;95943.19;;;18.80
20867;BMP280;10593;48.398;10.698;2022-09-17T15:07:22;95953.69;;;18.79
20867;BMP280;10593;48.398;10.698;2022-09-17T15:09:48;95953.69;;;18.79
20867;BMP280;10593;48.398;10.698;2022-09-17T15:12:19;95936.47;;;18.76
20867;BMP280;10593;48.398;10.698;2022-09-17T15:14:47;95938.22;;;18.76
20867;BMP280;10593;48.398;10.698;2022-09-17T15:17:17;95930.59;;;18.73
20867;BMP280;10593;48.398;10.698;2022-09-17T15:19:57;95927.25;;;18.71
20867;BMP280;10593;48.398;10.698;2022-09-17T15:25:25;95934.44;;;18.66
20867;BMP280;10593;48.398;10.698;2022-09-17T15:27:57;95937.97;;;18.65
20867;BMP280;10593;48.398;10.698;2022-09-17T15:30:28;95933.69;;;18.64
20867;BMP280;10593;48.398;10.698;2022-09-17T15:32:57;95933.69;;;18.64
20867;BMP280;10593;48.398;10.698;2022-09-17T15:35:32;95935.47;;;18.63
20867;BMP280;10593;48.398;10.698;2022-09-17T15:38:18;95931.25;;;18.61
20867;BMP280;10593;48.398;10.698;2022-09-17T15:40:45;95930.41;;;18.60
20867;BMP280;10593;48.398;10.698;2022-09-17T15:43:32;95932.06;;;18.61
20867;BMP280;10593;48.398;10.698;2022-09-17T15:46:29;95933.09;;;18.59
20867;BMP280;10593;48.398;10.698;2022-09-17T15:48:58;95938.31;;;18.59
20867;BMP280;10593;48.398;10.698;2022-09-17T15:51:33;95934.84;;;18.58
20867;BMP280;10593;48.398;10.698;2022-09-17T15:54:03;95942.59;;;18.60
20867;BMP280;10593;48.398;10.698;2022-09-17T15:56:33;95936.47;;;18.61
20867;BMP280;10593;48.398;10.698;2022-09-17T15:59:24;95933.00;;;18.60
20867;BMP280;10593;48.398;10.698;2022-09-17T16:01:54;95935.59;;;18.60
20867;BMP280;10593;48.398;10.698;2022-09-17T16:04:32;95932.94;;;18.62
20867;BMP280;10593;48.398;10.698;2022-09-17T16:09:41;95930.41;;;18.60
20867;BMP280;10593;48.398;10.698;2022-09-17T16:12:11;95928.66;;;18.61
20867;BMP280;10593;48.398;10.698;2022-09-17T16:14:39;95925.19;;;18.60
20867;BMP280;10593;48.398;10.698;2022-09-17T16:22:38;95923.63;;;18.58
20867;BMP280;10593;48.398;10.698;2022-09-17T16:25:05;95926.22;;;18.58
20867;BMP280;10593;48.398;10.698;2022-09-17T16:27:51;95924.53;;;18.57
20867;BMP280;10593;48.398;10.698;2022-09-17T16:30:21;95925.47;;;18.56
20867;BMP280;10593;48.398;10.698;2022-09-17T16:32:47;95923.75;;;18.55
20867;BMP280;10593;48.398;10.698;2022-09-17T16:35:18;95923.75;;;18.55
20867;BMP280;10593;48.398;10.698;2022-09-17T16:37:49;95930.00;;;18.52
20867;BMP280;10593;48.398;10.698;2022-09-17T16:40:16;95927.47;;;18.51
20867;BMP280;10593;48.398;10.698;2022-09-17T16:42:42;95925.78;;;18.50